createdAt,value
2019-05-25T00:00:10.358Z,13.60
2019-05-25T00:02:39.732Z,13.50
2019-05-25T00:05:09.558Z,13.40
2019-05-25T00:07:38.911Z,13.40
2019-05-25T00:10:08.659Z,13.30
2019-05-25T00:12:37.963Z,13.30
2019-05-25T00:15:07.575Z,13.30
2019-05-25T00:17:36.870Z,13.20
2019-05-25T00:20:06.578Z,13.20
2019-05-25T00:22:35.884Z,13.10
2019-05-25T00:25:07.375Z,13.10
2019-05-25T00:27:36.728Z,13.00
2019-05-25T00:30:08.044Z,13.00
2019-05-25T00:32:38.603Z,13.00
2019-05-25T00:35:07.953Z,13.00
2019-05-25T00:37:37.235Z,12.90
2019-05-25T00:40:08.338Z,12.90
2019-05-25T00:42:37.627Z,12.80
2019-05-25T00:45:06.979Z,12.80
2019-05-25T00:47:36.258Z,12.70
2019-05-25T00:50:07.641Z,12.70
2019-05-25T00:52:36.923Z,12.60
2019-05-25T00:55:08.931Z,12.60
2019-05-25T00:57:38.221Z,12.50
2019-05-25T01:00:08.426Z,12.50
2019-05-25T01:02:40.038Z,12.40
2019-05-25T01:05:09.713Z,12.40
2019-05-25T01:07:38.999Z,12.40
2019-05-25T01:10:08.825Z,12.30
2019-05-25T01:12:38.099Z,12.30
2019-05-25T01:15:08.322Z,12.20
2019-05-25T01:17:38.668Z,12.10
2019-05-25T01:20:09.799Z,12.00
2019-05-25T01:22:39.514Z,11.90
2019-05-25T01:25:10.231Z,11.90
2019-05-25T01:27:39.510Z,11.80
2019-05-25T01:30:10.323Z,11.80
2019-05-25T01:32:39.594Z,11.70
2019-05-25T01:35:09.131Z,11.70
2019-05-25T01:37:38.498Z,11.70
2019-05-25T01:40:08.455Z,11.60
2019-05-25T01:42:38.081Z,11.60
2019-05-25T01:45:09.039Z,11.60
2019-05-25T01:47:38.319Z,11.60
2019-05-25T01:50:07.840Z,11.60
2019-05-25T01:52:37.130Z,11.50
2019-05-25T01:55:07.266Z,11.40
2019-05-25T01:57:36.548Z,11.50
2019-05-25T02:00:06.964Z,11.40
2019-05-25T02:02:36.315Z,11.40
2019-05-25T02:05:06.534Z,11.30
2019-05-25T02:07:36.602Z,11.20
2019-05-25T02:10:07.820Z,11.10
2019-05-25T02:12:37.098Z,11.00
2019-05-25T02:15:09.476Z,11.00
2019-05-25T02:17:38.752Z,10.90
2019-05-25T02:20:08.991Z,10.90
2019-05-25T02:22:39.235Z,10.80
2019-05-25T02:25:17.862Z,10.80
2019-05-25T02:27:40.651Z,10.70
2019-05-25T02:30:11.673Z,10.70
2019-05-25T02:32:41.031Z,10.60
2019-05-25T02:35:13.451Z,10.60
2019-05-25T02:37:42.750Z,10.60
2019-05-25T02:40:12.087Z,10.60
2019-05-25T02:42:41.448Z,10.50
2019-05-25T02:45:10.863Z,10.50
2019-05-25T02:47:40.146Z,10.50
2019-05-25T02:50:09.497Z,10.50
2019-05-25T02:52:38.779Z,10.50
2019-05-25T02:55:10.363Z,10.50
2019-05-25T02:57:39.715Z,10.50
2019-05-25T03:00:09.744Z,10.50
2019-05-25T03:02:39.186Z,10.50
2019-05-25T03:05:11.396Z,10.50
2019-05-25T03:07:41.332Z,10.40
2019-05-25T03:10:10.679Z,10.40
2019-05-25T03:12:41.043Z,10.40
2019-05-25T03:15:10.383Z,10.40
2019-05-25T03:17:39.674Z,10.40
2019-05-25T03:20:09.291Z,10.40
2019-05-25T03:22:38.594Z,10.30
2019-05-25T03:25:08.214Z,10.30
2019-05-25T03:27:37.498Z,10.30
2019-05-25T03:30:07.917Z,10.30
2019-05-25T03:32:37.274Z,10.30
2019-05-25T03:35:08.062Z,10.30
2019-05-25T03:37:37.340Z,10.30
2019-05-25T03:40:08.227Z,10.30
2019-05-25T03:42:37.510Z,10.30
2019-05-25T03:45:07.523Z,10.30
2019-05-25T03:47:36.844Z,10.20
2019-05-25T03:50:06.555Z,10.20
2019-05-25T03:52:35.870Z,10.10
2019-05-25T03:55:06.594Z,10.10
2019-05-25T03:57:35.867Z,10.00
2019-05-25T04:00:07.490Z,10.00
2019-05-25T04:02:36.770Z,10.00
2019-05-25T04:05:07.081Z,10.00
2019-05-25T04:07:36.347Z,9.90
2019-05-25T04:10:07.615Z,10.00
2019-05-25T04:12:36.895Z,9.90
2019-05-25T04:15:07.414Z,9.90
2019-05-25T04:17:36.682Z,9.90
2019-05-25T04:20:06.905Z,9.90
2019-05-25T04:22:36.177Z,9.90
2019-05-25T04:25:06.527Z,9.90
2019-05-25T04:27:35.790Z,9.90
2019-05-25T04:30:09.111Z,9.80
2019-05-25T04:32:38.433Z,9.80
2019-05-25T04:35:07.890Z,9.80
2019-05-25T04:37:38.143Z,9.80
2019-05-25T04:40:08.758Z,9.80
2019-05-25T04:42:38.035Z,9.80
2019-05-25T04:45:08.861Z,9.90
2019-05-25T04:47:38.142Z,9.90
2019-05-25T04:50:08.079Z,9.90
2019-05-25T04:52:40.992Z,9.90
2019-05-25T04:55:08.889Z,10.00
2019-05-25T04:57:39.188Z,10.00
2019-05-25T05:00:09.323Z,10.00
2019-05-25T05:02:38.611Z,10.00
2019-05-25T05:05:07.963Z,10.00
2019-05-25T05:07:37.244Z,10.10
2019-05-25T05:10:07.844Z,10.10
2019-05-25T05:12:38.093Z,10.10
2019-05-25T05:15:07.822Z,10.20
2019-05-25T05:17:37.097Z,10.20
2019-05-25T05:20:08.293Z,10.20
2019-05-25T05:22:37.579Z,10.30
2019-05-25T05:25:08.949Z,10.30
2019-05-25T05:27:39.090Z,10.40
2019-05-25T05:30:09.424Z,10.50
2019-05-25T05:32:38.752Z,10.60
2019-05-25T05:35:09.055Z,10.60
2019-05-25T05:37:39.666Z,10.70
2019-05-25T05:40:09.699Z,10.70
2019-05-25T05:42:39.732Z,10.80
2019-05-25T05:45:09.446Z,10.90
2019-05-25T05:47:41.146Z,10.90
2019-05-25T05:50:10.682Z,11.00
2019-05-25T05:52:40.516Z,11.00
2019-05-25T05:55:11.546Z,11.10
2019-05-25T05:57:40.832Z,11.10
2019-05-25T06:00:11.294Z,11.20
2019-05-25T06:02:40.568Z,11.30
2019-05-25T06:05:10.207Z,11.40
2019-05-25T06:07:39.485Z,11.50
2019-05-25T06:10:09.115Z,11.60
2019-05-25T06:12:38.397Z,11.70
2019-05-25T06:15:08.191Z,11.80
2019-05-25T06:17:37.480Z,11.90
2019-05-25T06:20:10.005Z,11.90
2019-05-25T06:22:39.278Z,12.00
2019-05-25T06:25:09.985Z,12.20
2019-05-25T06:27:39.259Z,12.30
2019-05-25T06:30:09.382Z,12.40
2019-05-25T06:32:38.738Z,12.50
2019-05-25T06:35:08.981Z,12.70
2019-05-25T06:37:38.295Z,12.90
2019-05-25T06:40:08.599Z,13.00
2019-05-25T06:42:38.142Z,13.20
2019-05-25T06:45:07.864Z,13.30
2019-05-25T06:47:37.264Z,13.50
2019-05-25T06:50:07.387Z,13.60
2019-05-25T06:52:36.677Z,13.70
2019-05-25T06:55:07.228Z,13.80
2019-05-25T06:57:43.271Z,14.00
2019-05-25T07:00:09.043Z,14.10
2019-05-25T07:02:38.335Z,14.20
2019-05-25T07:05:09.133Z,14.20
2019-05-25T07:07:38.441Z,14.30
2019-05-25T07:10:09.161Z,14.40
2019-05-25T07:12:38.463Z,14.50
2019-05-25T07:15:08.671Z,14.50
2019-05-25T07:17:37.971Z,14.50
2019-05-25T07:20:08.398Z,14.50
2019-05-25T07:22:37.691Z,14.50
2019-05-25T07:25:07.629Z,14.50
2019-05-25T07:27:36.996Z,14.60
2019-05-25T07:30:07.440Z,14.60
2019-05-25T07:32:36.785Z,14.60
2019-05-25T07:35:07.970Z,14.60
2019-05-25T07:37:38.317Z,14.60
2019-05-25T07:40:07.935Z,14.70
2019-05-25T07:42:38.299Z,14.70
2019-05-25T07:45:08.418Z,14.60
2019-05-25T07:47:37.707Z,14.50
2019-05-25T07:50:10.887Z,14.50
2019-05-25T07:52:40.181Z,14.50
2019-05-25T07:55:09.522Z,14.50
2019-05-25T07:57:38.815Z,14.60
2019-05-25T08:00:08.371Z,14.60
2019-05-25T08:02:37.736Z,14.60
2019-05-25T08:05:08.020Z,14.60
2019-05-25T08:07:38.383Z,14.60
2019-05-25T08:10:08.459Z,14.60
2019-05-25T08:12:37.749Z,14.70
2019-05-25T08:15:08.702Z,14.80
2019-05-25T08:17:37.986Z,14.80
2019-05-25T08:20:07.615Z,14.80
2019-05-25T08:22:37.885Z,14.80
2019-05-25T08:25:08.007Z,14.80
2019-05-25T08:27:37.987Z,14.90
2019-05-25T08:30:09.533Z,15.00
2019-05-25T08:32:38.867Z,15.00
2019-05-25T08:35:08.599Z,14.90
2019-05-25T08:37:37.918Z,15.00
2019-05-25T08:40:07.575Z,15.10
2019-05-25T08:42:36.878Z,15.10
2019-05-25T08:45:07.372Z,15.20
2019-05-25T08:47:36.655Z,15.20
2019-05-25T08:50:06.578Z,15.30
2019-05-25T08:52:37.205Z,15.40
2019-05-25T08:55:07.542Z,15.50
2019-05-25T08:57:36.822Z,15.70
2019-05-25T09:00:07.260Z,15.80
2019-05-25T09:02:37.507Z,15.90
2019-05-25T09:05:07.638Z,16.00
2019-05-25T09:07:36.930Z,16.00
2019-05-25T09:10:06.859Z,16.10
2019-05-25T09:12:36.156Z,16.30
2019-05-25T09:15:06.801Z,16.40
2019-05-25T09:17:36.156Z,16.30
2019-05-25T09:20:09.539Z,16.10
2019-05-25T09:22:38.824Z,16.00
2019-05-25T09:25:08.463Z,15.90
2019-05-25T09:27:37.761Z,16.00
2019-05-25T09:30:08.302Z,16.30
2019-05-25T09:32:37.575Z,16.40
2019-05-25T09:35:08.622Z,16.40
2019-05-25T09:37:38.854Z,16.40
2019-05-25T09:40:08.795Z,16.30
2019-05-25T09:42:38.671Z,16.20
2019-05-25T09:45:08.991Z,16.20
2019-05-25T09:47:38.282Z,16.30
2019-05-25T09:50:07.725Z,16.30
2019-05-25T09:52:37.004Z,16.30
2019-05-25T09:55:08.306Z,16.40
2019-05-25T09:57:40.883Z,16.50
2019-05-25T10:00:11.015Z,16.50
2019-05-25T10:02:40.540Z,16.50
2019-05-25T10:05:10.769Z,16.60
2019-05-25T10:07:40.047Z,16.70
2019-05-25T10:10:09.995Z,16.70
2019-05-25T10:12:39.285Z,16.80
2019-05-25T10:15:09.120Z,16.80
2019-05-25T10:17:38.476Z,16.90
2019-05-25T10:20:07.928Z,16.90
2019-05-25T10:22:37.248Z,17.00
2019-05-25T10:25:08.627Z,17.10
2019-05-25T10:27:37.990Z,16.90
2019-05-25T10:30:08.107Z,16.90
2019-05-25T10:32:37.402Z,16.80
2019-05-25T10:35:07.686Z,16.90
2019-05-25T10:37:36.973Z,16.90
2019-05-25T10:40:08.000Z,17.00
2019-05-25T10:42:37.310Z,17.10
2019-05-25T10:45:07.687Z,17.20
2019-05-25T10:47:37.016Z,17.30
2019-05-25T10:50:08.243Z,17.40
2019-05-25T10:52:37.522Z,17.40
2019-05-25T10:55:08.843Z,17.30
2019-05-25T10:57:38.711Z,17.30
2019-05-25T11:00:12.285Z,17.30
2019-05-25T11:02:41.582Z,17.30
2019-05-25T11:05:11.402Z,17.40
2019-05-25T11:07:40.691Z,17.50
2019-05-25T11:10:10.686Z,17.50
2019-05-25T11:12:39.986Z,17.50
2019-05-25T11:15:09.500Z,17.60
2019-05-25T11:17:38.795Z,17.80
2019-05-25T11:20:10.390Z,17.90
2019-05-25T11:22:39.682Z,18.10
2019-05-25T11:25:09.731Z,18.20
2019-05-25T11:27:39.075Z,18.20
2019-05-25T11:30:10.358Z,18.30
2019-05-25T11:32:39.771Z,18.30
2019-05-25T11:35:10.398Z,18.30
2019-05-25T11:37:39.693Z,18.30
2019-05-25T11:40:11.112Z,18.40
2019-05-25T11:42:40.403Z,18.50
2019-05-25T11:45:10.226Z,18.50
2019-05-25T11:47:39.522Z,18.60
2019-05-25T11:50:09.664Z,18.70
2019-05-25T11:52:40.350Z,18.80
2019-05-25T11:55:10.840Z,18.80
2019-05-25T11:57:40.132Z,18.80
2019-05-25T12:00:23.626Z,18.80
2019-05-25T12:02:42.682Z,18.90
2019-05-25T12:05:12.604Z,19.00
2019-05-25T12:07:44.619Z,19.10
2019-05-25T12:10:14.827Z,19.10
2019-05-25T12:12:44.107Z,18.90
2019-05-25T12:15:14.459Z,18.80
2019-05-25T12:17:43.744Z,18.80
2019-05-25T12:20:13.672Z,18.90
2019-05-25T12:22:42.951Z,19.10
2019-05-25T12:25:13.375Z,19.20
2019-05-25T12:27:42.678Z,19.40
2019-05-25T12:30:12.883Z,19.50
2019-05-25T12:32:42.168Z,19.60
2019-05-25T12:35:11.790Z,19.70
2019-05-25T12:37:41.076Z,19.80
2019-05-25T12:40:10.594Z,19.80
2019-05-25T12:42:39.878Z,19.90
2019-05-25T12:45:10.305Z,20.10
2019-05-25T12:47:39.587Z,20.20
2019-05-25T12:50:09.214Z,20.30
2019-05-25T12:52:38.548Z,20.30
2019-05-25T12:55:07.967Z,20.40
2019-05-25T12:57:37.242Z,20.70
2019-05-25T13:00:15.478Z,20.90
2019-05-25T13:02:39.025Z,21.00
2019-05-25T13:05:08.967Z,21.00
2019-05-25T13:07:38.254Z,20.80
2019-05-25T13:10:08.076Z,20.80
2019-05-25T13:12:37.350Z,20.80
2019-05-25T13:15:09.459Z,20.90
2019-05-25T13:17:38.800Z,21.10
2019-05-25T13:20:08.528Z,21.40
2019-05-25T13:22:37.803Z,21.80
2019-05-25T13:25:07.710Z,22.10
2019-05-25T13:27:37.012Z,22.30
2019-05-25T13:30:08.262Z,22.40
2019-05-25T13:32:37.556Z,22.40
2019-05-25T13:35:07.272Z,22.40
2019-05-25T13:37:36.555Z,22.50
2019-05-25T13:40:06.775Z,22.70
2019-05-25T13:42:36.085Z,22.90
2019-05-25T13:45:06.688Z,23.00
2019-05-25T13:47:35.987Z,23.20
2019-05-25T13:50:07.617Z,22.80
2019-05-25T13:52:37.958Z,22.30
2019-05-25T13:55:07.782Z,21.90
2019-05-25T13:57:37.074Z,21.90
2019-05-25T14:00:07.288Z,22.10
2019-05-25T14:02:36.710Z,22.20
2019-05-25T14:05:06.931Z,22.60
2019-05-25T14:07:36.217Z,22.80
2019-05-25T14:10:09.410Z,23.00
2019-05-25T14:12:38.701Z,23.20
2019-05-25T14:15:08.647Z,23.30
2019-05-25T14:17:38.237Z,23.30
2019-05-25T14:20:08.248Z,23.40
2019-05-25T14:22:37.540Z,23.60
2019-05-25T14:25:07.962Z,23.80
2019-05-25T14:27:37.246Z,24.00
2019-05-25T14:30:07.673Z,24.20
2019-05-25T14:32:37.018Z,24.20
2019-05-25T14:35:06.755Z,24.30
2019-05-25T14:37:36.308Z,24.30
2019-05-25T14:40:11.401Z,24.50
2019-05-25T14:42:40.275Z,24.70
2019-05-25T14:45:09.988Z,24.90
2019-05-25T14:47:39.275Z,25.00
2019-05-25T14:50:09.383Z,25.20
2019-05-25T14:52:38.678Z,25.20
2019-05-25T14:55:09.419Z,25.30
2019-05-25T14:57:38.703Z,25.40
2019-05-25T15:00:10.110Z,25.50
2019-05-25T15:02:39.375Z,25.60
2019-05-25T15:05:08.899Z,25.70
2019-05-25T15:07:38.199Z,25.70
2019-05-25T15:10:09.295Z,25.90
2019-05-25T15:12:38.597Z,25.80
2019-05-25T15:15:08.419Z,25.60
2019-05-25T15:17:37.739Z,25.50
2019-05-25T15:20:09.086Z,25.50
2019-05-25T15:22:38.374Z,25.50
2019-05-25T15:25:08.979Z,25.50
2019-05-25T15:27:39.235Z,25.40
2019-05-25T15:30:08.675Z,25.20
2019-05-25T15:32:37.950Z,25.20
2019-05-25T15:35:08.082Z,25.20
2019-05-25T15:37:37.375Z,25.20
2019-05-25T15:40:10.829Z,25.00
2019-05-25T15:42:40.103Z,24.90
2019-05-25T15:45:09.907Z,24.70
2019-05-25T15:47:40.379Z,24.60
2019-05-25T15:50:11.128Z,24.40
2019-05-25T15:52:40.411Z,24.20
2019-05-25T15:55:10.637Z,24.20
2019-05-25T15:57:40.402Z,24.10
2019-05-25T16:00:11.265Z,24.10
2019-05-25T16:02:40.744Z,24.00
2019-05-25T16:05:10.439Z,23.70
2019-05-25T16:07:42.854Z,23.30
2019-05-25T16:10:12.220Z,23.00
2019-05-25T16:12:41.501Z,22.80
2019-05-25T16:15:10.926Z,22.60
2019-05-25T16:17:40.275Z,22.40
2019-05-25T16:20:09.709Z,22.20
2019-05-25T16:22:39.056Z,22.00
2019-05-25T16:25:08.359Z,21.90
2019-05-25T16:27:37.644Z,21.80
2019-05-25T16:30:09.726Z,21.60
2019-05-25T16:33:09.897Z,21.50
2019-05-25T16:35:10.132Z,21.30
2019-05-25T16:37:39.807Z,21.20
2019-05-25T16:40:09.596Z,21.30
2019-05-25T16:42:39.165Z,21.20
2019-05-25T16:45:09.291Z,21.10
2019-05-25T16:47:38.570Z,21.10
2019-05-25T16:50:08.794Z,21.10
2019-05-25T16:52:38.094Z,21.20
2019-05-25T16:55:07.826Z,21.30
2019-05-25T16:57:37.104Z,21.40
2019-05-25T17:00:07.130Z,21.50
2019-05-25T17:02:36.399Z,21.70
2019-05-25T17:05:07.234Z,21.80
2019-05-25T17:07:36.509Z,21.80
2019-05-25T17:10:06.542Z,21.80
2019-05-25T17:12:35.822Z,21.70
2019-05-25T17:15:08.232Z,21.50
2019-05-25T17:17:37.508Z,21.40
2019-05-25T17:20:06.963Z,21.20
2019-05-25T17:22:36.284Z,21.10
2019-05-25T17:25:09.458Z,21.10
2019-05-25T17:27:38.747Z,21.10
2019-05-25T17:30:09.726Z,21.00
2019-05-25T17:32:39.370Z,20.90
2019-05-25T17:35:08.849Z,20.90
2019-05-25T17:37:38.127Z,20.90
2019-05-25T17:40:08.216Z,20.90
2019-05-25T17:42:37.766Z,20.90
2019-05-25T17:45:07.422Z,20.80
2019-05-25T17:47:36.712Z,20.80
2019-05-25T17:50:07.146Z,20.70
2019-05-25T17:52:36.503Z,20.70
2019-05-25T17:55:08.847Z,20.70
2019-05-25T17:57:38.148Z,20.70
2019-05-25T18:00:09.198Z,20.70
2019-05-25T18:02:38.491Z,20.70
2019-05-25T18:05:08.552Z,20.70
2019-05-25T18:07:37.882Z,20.60
2019-05-25T18:10:10.408Z,20.50
2019-05-25T18:12:40.176Z,20.40
2019-05-25T18:15:10.382Z,20.30
2019-05-25T18:17:39.683Z,20.30
2019-05-25T18:20:10.416Z,20.20
2019-05-25T18:22:39.718Z,20.10
2019-05-25T18:25:09.488Z,20.10
2019-05-25T18:27:39.764Z,20.00
2019-05-25T18:30:10.872Z,19.90
2019-05-25T18:32:40.178Z,19.80
2019-05-25T18:35:09.594Z,19.80
2019-05-25T18:37:39.104Z,19.80
2019-05-25T18:40:09.315Z,19.80
2019-05-25T18:42:38.760Z,19.70
2019-05-25T18:45:09.709Z,19.70
2019-05-25T18:47:39.069Z,19.70
2019-05-25T18:50:11.481Z,19.60
2019-05-25T18:52:40.751Z,19.60
2019-05-25T18:55:11.465Z,19.60
2019-05-25T18:57:40.754Z,19.60
2019-05-25T19:00:10.776Z,19.60
2019-05-25T19:02:40.056Z,19.60
2019-05-25T19:05:09.771Z,19.60
2019-05-25T19:07:39.083Z,19.60
2019-05-25T19:10:09.217Z,19.60
2019-05-25T19:12:38.556Z,19.60
2019-05-25T19:15:09.393Z,19.50
2019-05-25T19:17:38.701Z,19.50
2019-05-25T19:20:09.206Z,19.40
2019-05-25T19:22:38.691Z,19.40
2019-05-25T19:25:09.111Z,19.30
2019-05-25T19:27:39.371Z,19.20
2019-05-25T19:30:10.584Z,19.10
2019-05-25T19:32:39.887Z,19.00
2019-05-25T19:35:11.121Z,18.90
2019-05-25T19:37:42.512Z,18.90
2019-05-25T19:40:12.726Z,18.80
2019-05-25T19:42:42.023Z,18.70
2019-05-25T19:45:11.735Z,18.60
2019-05-25T19:47:41.110Z,18.60
2019-05-25T19:50:11.234Z,18.50
2019-05-25T19:52:40.540Z,18.40
2019-05-25T19:55:10.755Z,18.40
2019-05-25T19:57:40.091Z,18.30
2019-05-25T20:00:10.223Z,18.20
2019-05-25T20:02:39.511Z,18.10
2019-05-25T20:05:16.195Z,18.00
2019-05-25T20:07:40.427Z,18.00
2019-05-25T20:10:10.707Z,17.90
2019-05-25T20:12:40.030Z,17.80
2019-05-25T20:15:10.867Z,17.70
2019-05-25T20:17:40.184Z,17.60
2019-05-25T20:20:10.149Z,17.60
2019-05-25T20:22:39.448Z,17.50
2019-05-25T20:25:09.085Z,17.40
2019-05-25T20:27:38.447Z,17.40
2019-05-25T20:30:08.784Z,17.30
2019-05-25T20:32:38.150Z,17.20
2019-05-25T20:35:07.768Z,17.10
2019-05-25T20:37:37.062Z,17.10
2019-05-25T20:40:08.379Z,17.00
2019-05-25T20:42:37.790Z,16.90
2019-05-25T20:45:07.831Z,16.80
2019-05-25T20:47:37.206Z,16.80
2019-05-25T20:50:07.733Z,16.80
2019-05-25T20:52:37.110Z,16.70
2019-05-25T20:55:07.524Z,16.70
2019-05-25T20:57:36.826Z,16.70
2019-05-25T21:00:07.961Z,16.70
2019-05-25T21:02:37.422Z,16.60
2019-05-25T21:05:07.743Z,16.60
2019-05-25T21:07:37.032Z,16.60
2019-05-25T21:10:09.793Z,16.50
2019-05-25T21:12:39.162Z,16.50
2019-05-25T21:15:08.891Z,16.40
2019-05-25T21:17:38.164Z,16.40
2019-05-25T21:20:08.605Z,16.30
2019-05-25T21:22:38.850Z,16.30
2019-05-25T21:25:08.668Z,16.30
2019-05-25T21:27:38.927Z,16.20
2019-05-25T21:30:09.395Z,16.20
2019-05-25T21:32:38.696Z,16.10
2019-05-25T21:35:09.320Z,16.00
2019-05-25T21:37:38.607Z,15.90
2019-05-25T21:40:08.970Z,15.90
2019-05-25T21:42:38.244Z,15.90
2019-05-25T21:45:08.027Z,15.80
2019-05-25T21:47:37.405Z,15.80
2019-05-25T21:50:08.052Z,15.70
2019-05-25T21:52:37.392Z,15.60
2019-05-25T21:55:06.761Z,15.60
2019-05-25T21:57:36.063Z,15.50
2019-05-25T22:00:11.962Z,15.50
2019-05-25T22:02:42.607Z,15.40
2019-05-25T22:05:12.294Z,15.40
2019-05-25T22:07:41.594Z,15.40
2019-05-25T22:10:10.970Z,15.30
2019-05-25T22:12:40.729Z,15.20
2019-05-25T22:15:11.929Z,15.10
2019-05-25T22:17:41.198Z,15.10
2019-05-25T22:20:11.021Z,15.00
2019-05-25T22:22:40.503Z,14.90
2019-05-25T22:25:10.152Z,14.80
2019-05-25T22:27:39.418Z,14.80
2019-05-25T22:30:10.131Z,14.70
2019-05-25T22:32:39.432Z,14.70
2019-05-25T22:35:09.041Z,14.60
2019-05-25T22:37:38.335Z,14.50
2019-05-25T22:40:08.457Z,14.50
2019-05-25T22:42:38.031Z,14.40
2019-05-25T22:45:08.105Z,14.40
2019-05-25T22:47:37.395Z,14.40
2019-05-25T22:50:07.605Z,14.30
2019-05-25T22:52:36.902Z,14.20
2019-05-25T22:55:07.735Z,14.00
2019-05-25T22:57:37.029Z,14.00
2019-05-25T23:00:08.200Z,13.90
2019-05-25T23:02:38.738Z,13.80
2019-05-25T23:05:08.550Z,13.80
2019-05-25T23:07:37.855Z,13.80
2019-05-25T23:10:09.074Z,13.80
2019-05-25T23:12:38.427Z,13.70
2019-05-25T23:15:08.166Z,13.70
2019-05-25T23:17:37.561Z,13.60
2019-05-25T23:20:08.297Z,13.60
2019-05-25T23:22:37.672Z,13.50
2019-05-25T23:25:07.358Z,13.50
2019-05-25T23:27:36.652Z,13.40
2019-05-25T23:30:06.782Z,13.30
2019-05-25T23:32:36.089Z,13.30
2019-05-25T23:35:06.108Z,13.20
2019-05-25T23:37:35.394Z,13.20
2019-05-25T23:40:09.115Z,13.10
2019-05-25T23:42:39.378Z,13.10
2019-05-25T23:45:09.259Z,13.10
2019-05-25T23:47:38.818Z,13.10
2019-05-25T23:50:08.542Z,13.00
2019-05-25T23:52:37.858Z,13.00
2019-05-25T23:55:07.293Z,12.90
2019-05-25T23:57:36.596Z,12.90
